sensor_id;sensor_type;location;lat;lon;timestamp;P1;durP1;ratioP1;P2;durP2;ratioP2
4786;SDS011;62338;48.832;9.422;2022-08-01T00:00:33;4.10;;;2.53;;
4786;SDS011;62338;48.832;9.422;2022-08-01T00:02:59;8.20;;;3.17;;
4786;SDS011;62338;48.832;9.422;2022-08-01T00:05:25;5.60;;;3.27;;
4786;SDS011;62338;48.832;9.422;2022-08-01T00:07:51;6.57;;;2.70;;
4786;SDS011;62338;48.832;9.422;2022-08-01T00:10:17;6.40;;;2.60;;
4786;SDS011;62338;48.832;9.422;2022-08-01T00:12:43;5.37;;;3.40;;
4786;SDS011;62338;48.832;9.422;2022-08-01T00:15:15;8.23;;;2.70;;
4786;SDS011;62338;48.832;9.422;2022-08-01T00:17:41;4.90;;;3.07;;
4786;SDS011;62338;48.832;9.422;2022-08-01T00:20:09;6.60;;;3.07;;
4786;SDS011;62338;48.832;9.422;2022-08-01T00:22:36;6.17;;;2.63;;
4786;SDS011;62338;48.832;9.422;2022-08-01T00:25:04;4.40;;;2.73;;
4786;SDS011;62338;48.832;9.422;2022-08-01T00:27:31;6.07;;;3.40;;
4786;SDS011;62338;48.832;9.422;2022-08-01T00:29:58;8.40;;;2.93;;
4786;SDS011;62338;48.832;9.422;2022-08-01T00:32:24;4.80;;;2.87;;
4786;SDS011;62338;48.832;9.422;2022-08-01T00:34:50;6.77;;;2.67;;
4786;SDS011;62338;48.832;9.422;2022-08-01T00:37:16;5.03;;;3.13;;
4786;SDS011;62338;48.832;9.422;2022-08-01T00:39:42;6.60;;;3.53;;
4786;SDS011;62338;48.832;9.422;2022-08-01T00:42:09;5.47;;;3.13;;
4786;SDS011;62338;48.832;9.422;2022-08-01T00:44:36;5.13;;;2.90;;
4786;SDS011;62338;48.832;9.422;2022-08-01T00:47:03;5.83;;;2.67;;
4786;SDS011;62338;48.832;9.422;2022-08-01T00:49:30;4.40;;;2.60;;
4786;SDS011;62338;48.832;9.422;2022-08-01T00:51:56;5.07;;;3.03;;
4786;SDS011;62338;48.832;9.422;2022-08-01T00:54:23;6.40;;;2.77;;
4786;SDS011;62338;48.832;9.422;2022-08-01T00:56:50;7.80;;;3.00;;
4786;SDS011;62338;48.832;9.422;2022-08-01T00:59:17;4.27;;;2.90;;
4786;SDS011;62338;48.832;9.422;2022-08-01T01:01:43;4.23;;;2.67;;
4786;SDS011;62338;48.832;9.422;2022-08-01T04:47:55;5.17;;;3.10;;
4786;SDS011;62338;48.832;9.422;2022-08-01T04:49:58;5.20;;;2.87;;
4786;SDS011;62338;48.832;9.422;2022-08-01T04:52:01;4.70;;;2.87;;
4786;SDS011;62338;48.832;9.422;2022-08-01T04:54:03;4.73;;;2.80;;
4786;SDS011;62338;48.832;9.422;2022-08-01T04:56:05;5.40;;;3.10;;
4786;SDS011;62338;48.832;9.422;2022-08-01T04:58:08;6.30;;;2.80;;
4786;SDS011;62338;48.832;9.422;2022-08-01T05:00:15;5.50;;;2.90;;
4786;SDS011;62338;48.832;9.422;2022-08-01T05:02:19;4.67;;;2.30;;
4786;SDS011;62338;48.832;9.422;2022-08-01T05:04:21;5.17;;;3.10;;
4786;SDS011;62338;48.832;9.422;2022-08-01T05:06:23;5.80;;;3.23;;
4786;SDS011;62338;48.832;9.422;2022-08-01T05:08:25;5.03;;;3.03;;
4786;SDS011;62338;48.832;9.422;2022-08-01T05:10:27;4.73;;;2.90;;
4786;SDS011;62338;48.832;9.422;2022-08-01T05:12:28;5.07;;;2.87;;
4786;SDS011;62338;48.832;9.422;2022-08-01T05:14:33;6.33;;;2.93;;
4786;SDS011;62338;48.832;9.422;2022-08-01T05:16:35;4.03;;;2.60;;
4786;SDS011;62338;48.832;9.422;2022-08-01T05:18:37;6.73;;;2.90;;
4786;SDS011;62338;48.832;9.422;2022-08-01T05:20:40;5.40;;;2.83;;
4786;SDS011;62338;48.832;9.422;2022-08-01T05:22:42;4.97;;;3.20;;
4786;SDS011;62338;48.832;9.422;2022-08-01T05:24:44;6.00;;;2.73;;
4786;SDS011;62338;48.832;9.422;2022-08-01T05:26:49;5.27;;;3.10;;
4786;SDS011;62338;48.832;9.422;2022-08-01T05:28:51;4.77;;;2.80;;
4786;SDS011;62338;48.832;9.422;2022-08-01T05:30:53;5.20;;;3.00;;
4786;SDS011;62338;48.832;9.422;2022-08-01T05:32:56;9.53;;;3.50;;
4786;SDS011;62338;48.832;9.422;2022-08-01T05:34:57;5.70;;;2.77;;
4786;SDS011;62338;48.832;9.422;2022-08-01T05:37:00;3.63;;;2.53;;
4786;SDS011;62338;48.832;9.422;2022-08-01T05:39:02;5.40;;;2.50;;
4786;SDS011;62338;48.832;9.422;2022-08-01T05:41:04;4.33;;;2.90;;
4786;SDS011;62338;48.832;9.422;2022-08-01T05:43:06;6.40;;;3.30;;
4786;SDS011;62338;48.832;9.422;2022-08-01T05:45:08;4.57;;;3.20;;
4786;SDS011;62338;48.832;9.422;2022-08-01T05:47:11;5.77;;;3.60;;
4786;SDS011;62338;48.832;9.422;2022-08-01T05:49:13;9.10;;;3.50;;
4786;SDS011;62338;48.832;9.422;2022-08-01T05:51:15;5.13;;;3.10;;
4786;SDS011;62338;48.832;9.422;2022-08-01T05:53:16;8.23;;;3.10;;
4786;SDS011;62338;48.832;9.422;2022-08-01T05:55:18;5.90;;;3.07;;
4786;SDS011;62338;48.832;9.422;2022-08-01T05:57:20;5.80;;;2.53;;
4786;SDS011;62338;48.832;9.422;2022-08-01T05:59:22;4.87;;;2.63;;
4786;SDS011;62338;48.832;9.422;2022-08-01T06:01:24;5.57;;;3.00;;
4786;SDS011;62338;48.832;9.422;2022-08-01T06:03:26;5.10;;;2.87;;
4786;SDS011;62338;48.832;9.422;2022-08-01T06:05:32;5.33;;;2.73;;
4786;SDS011;62338;48.832;9.422;2022-08-01T06:07:33;4.60;;;2.60;;
4786;SDS011;62338;48.832;9.422;2022-08-01T06:09:38;5.47;;;2.93;;
4786;SDS011;62338;48.832;9.422;2022-08-01T06:11:40;5.00;;;2.63;;
4786;SDS011;62338;48.832;9.422;2022-08-01T06:13:42;4.10;;;2.50;;
4786;SDS011;62338;48.832;9.422;2022-08-01T06:15:48;5.07;;;2.70;;
4786;SDS011;62338;48.832;9.422;2022-08-01T06:17:50;5.20;;;2.30;;
4786;SDS011;62338;48.832;9.422;2022-08-01T06:19:52;6.60;;;2.60;;
4786;SDS011;62338;48.832;9.422;2022-08-01T06:21:54;6.13;;;2.80;;
4786;SDS011;62338;48.832;9.422;2022-08-01T06:23:56;4.13;;;2.47;;
4786;SDS011;62338;48.832;9.422;2022-08-01T06:25:58;5.30;;;2.90;;
4786;SDS011;62338;48.832;9.422;2022-08-01T06:27:59;4.77;;;2.50;;
4786;SDS011;62338;48.832;9.422;2022-08-01T06:30:02;5.47;;;2.50;;
4786;SDS011;62338;48.832;9.422;2022-08-01T06:32:05;4.60;;;2.50;;
4786;SDS011;62338;48.832;9.422;2022-08-01T06:34:08;4.20;;;2.50;;
4786;SDS011;62338;48.832;9.422;2022-08-01T06:36:10;5.07;;;2.47;;
4786;SDS011;62338;48.832;9.422;2022-08-01T06:38:11;3.93;;;2.03;;
4786;SDS011;62338;48.832;9.422;2022-08-01T06:40:13;4.43;;;2.40;;
4786;SDS011;62338;48.832;9.422;2022-08-01T06:42:17;4.83;;;2.70;;
4786;SDS011;62338;48.832;9.422;2022-08-01T06:44:19;6.43;;;2.80;;
4786;SDS011;62338;48.832;9.422;2022-08-01T06:46:21;4.93;;;2.97;;
4786;SDS011;62338;48.832;9.422;2022-08-01T06:48:22;9.93;;;2.33;;
4786;SDS011;62338;48.832;9.422;2022-08-01T06:50:24;4.33;;;2.57;;
4786;SDS011;62338;48.832;9.422;2022-08-01T06:52:26;4.53;;;2.53;;
4786;SDS011;62338;48.832;9.422;2022-08-01T06:54:28;4.23;;;2.47;;
4786;SDS011;62338;48.832;9.422;2022-08-01T06:56:29;5.90;;;2.77;;
4786;SDS011;62338;48.832;9.422;2022-08-01T06:58:31;4.40;;;2.50;;
4786;SDS011;62338;48.832;9.422;2022-08-01T07:00:33;7.43;;;3.00;;
4786;SDS011;62338;48.832;9.422;2022-08-01T07:02:35;6.33;;;2.30;;
4786;SDS011;62338;48.832;9.422;2022-08-01T07:04:38;4.27;;;2.40;;
4786;SDS011;62338;48.832;9.422;2022-08-01T07:06:39;4.90;;;2.00;;
4786;SDS011;62338;48.832;9.422;2022-08-01T07:08:41;3.83;;;2.20;;
4786;SDS011;62338;48.832;9.422;2022-08-01T07:10:43;4.50;;;2.03;;
4786;SDS011;62338;48.832;9.422;2022-08-01T07:12:44;5.20;;;2.00;;
4786;SDS011;62338;48.832;9.422;2022-08-01T07:14:46;3.10;;;1.73;;
4786;SDS011;62338;48.832;9.422;2022-08-01T07:16:48;3.50;;;2.00;;
4786;SDS011;62338;48.832;9.422;2022-08-01T07:18:50;4.65;;;1.88;;
4786;SDS011;62338;48.832;9.422;2022-08-01T07:20:52;4.95;;;2.00;;
4786;SDS011;62338;48.832;9.422;2022-08-01T07:22:54;4.47;;;2.63;;
4786;SDS011;62338;48.832;9.422;2022-08-01T07:24:56;4.95;;;1.90;;
4786;SDS011;62338;48.832;9.422;2022-08-01T07:26:58;3.92;;;1.83;;
4786;SDS011;62338;48.832;9.422;2022-08-01T07:29:21;3.97;;;2.03;;
4786;SDS011;62338;48.832;9.422;2022-08-01T07:31:24;5.55;;;1.75;;
4786;SDS011;62338;48.832;9.422;2022-08-01T07:33:32;3.92;;;2.10;;
4786;SDS011;62338;48.832;9.422;2022-08-01T07:35:49;3.50;;;1.80;;
4786;SDS011;62338;48.832;9.422;2022-08-01T07:37:51;4.90;;;1.92;;
4786;SDS011;62338;48.832;9.422;2022-08-01T07:39:54;3.50;;;1.45;;
4786;SDS011;62338;48.832;9.422;2022-08-01T07:41:55;4.45;;;2.17;;
4786;SDS011;62338;48.832;9.422;2022-08-01T07:44:08;4.03;;;2.13;;
4786;SDS011;62338;48.832;9.422;2022-08-01T07:46:09;4.75;;;1.80;;
4786;SDS011;62338;48.832;9.422;2022-08-01T07:48:11;4.20;;;1.83;;
4786;SDS011;62338;48.832;9.422;2022-08-01T07:50:13;4.65;;;2.08;;
4786;SDS011;62338;48.832;9.422;2022-08-01T07:52:15;5.85;;;1.80;;
4786;SDS011;62338;48.832;9.422;2022-08-01T07:54:17;3.50;;;2.00;;
4786;SDS011;62338;48.832;9.422;2022-08-01T07:56:19;3.35;;;1.33;;
4786;SDS011;62338;48.832;9.422;2022-08-01T07:58:21;7.40;;;1.70;;
4786;SDS011;62338;48.832;9.422;2022-08-01T08:00:22;4.28;;;2.00;;
4786;SDS011;62338;48.832;9.422;2022-08-01T08:02:24;3.05;;;1.63;;
4786;SDS011;62338;48.832;9.422;2022-08-01T08:04:26;4.32;;;1.80;;
4786;SDS011;62338;48.832;9.422;2022-08-01T08:06:29;4.90;;;1.60;;
4786;SDS011;62338;48.832;9.422;2022-08-01T08:08:31;8.15;;;1.92;;
4786;SDS011;62338;48.832;9.422;2022-08-01T08:10:33;2.92;;;1.75;;
4786;SDS011;62338;48.832;9.422;2022-08-01T08:12:35;4.07;;;1.88;;
4786;SDS011;62338;48.832;9.422;2022-08-01T08:14:37;3.75;;;1.80;;
4786;SDS011;62338;48.832;9.422;2022-08-01T08:16:39;5.60;;;2.08;;
4786;SDS011;62338;48.832;9.422;2022-08-01T08:18:41;4.40;;;1.70;;
4786;SDS011;62338;48.832;9.422;2022-08-01T08:20:43;5.15;;;2.28;;
4786;SDS011;62338;48.832;9.422;2022-08-01T08:22:45;5.60;;;1.80;;
4786;SDS011;62338;48.832;9.422;2022-08-01T08:24:46;9.15;;;1.88;;
4786;SDS011;62338;48.832;9.422;2022-08-01T08:26:49;4.22;;;2.17;;
4786;SDS011;62338;48.832;9.422;2022-08-01T08:28:53;4.90;;;2.13;;
4786;SDS011;62338;48.832;9.422;2022-08-01T08:30:55;3.60;;;1.80;;
4786;SDS011;62338;48.832;9.422;2022-08-01T08:32:59;3.78;;;2.00;;
4786;SDS011;62338;48.832;9.422;2022-08-01T08:35:00;8.95;;;2.95;;
4786;SDS011;62338;48.832;9.422;2022-08-01T08:37:03;4.45;;;1.70;;
4786;SDS011;62338;48.832;9.422;2022-08-01T08:39:05;3.10;;;1.98;;
4786;SDS011;62338;48.832;9.422;2022-08-01T08:41:08;3.63;;;1.95;;
4786;SDS011;62338;48.832;9.422;2022-08-01T08:43:10;5.45;;;1.90;;
4786;SDS011;62338;48.832;9.422;2022-08-01T08:45:12;5.30;;;2.38;;
4786;SDS011;62338;48.832;9.422;2022-08-01T08:47:14;3.63;;;1.80;;
4786;SDS011;62338;48.832;9.422;2022-08-01T08:49:24;4.60;;;2.25;;
4786;SDS011;62338;48.832;9.422;2022-08-01T08:51:38;6.38;;;2.10;;
4786;SDS011;62338;48.832;9.422;2022-08-01T08:53:40;7.43;;;2.25;;
4786;SDS011;62338;48.832;9.422;2022-08-01T08:55:45;6.03;;;2.00;;
4786;SDS011;62338;48.832;9.422;2022-08-01T08:57:56;4.65;;;2.00;;
4786;SDS011;62338;48.832;9.422;2022-08-01T08:59:59;3.78;;;1.90;;
4786;SDS011;62338;48.832;9.422;2022-08-01T09:02:01;6.03;;;2.40;;
4786;SDS011;62338;48.832;9.422;2022-08-01T09:04:03;3.53;;;1.73;;
4786;SDS011;62338;48.832;9.422;2022-08-01T09:06:05;4.85;;;1.90;;
4786;SDS011;62338;48.832;9.422;2022-08-01T09:08:07;4.07;;;2.10;;
4786;SDS011;62338;48.832;9.422;2022-08-01T09:10:09;4.93;;;1.98;;
4786;SDS011;62338;48.832;9.422;2022-08-01T09:12:11;4.25;;;2.10;;
4786;SDS011;62338;48.832;9.422;2022-08-01T09:14:17;4.03;;;1.92;;
4786;SDS011;62338;48.832;9.422;2022-08-01T09:16:28;6.38;;;2.10;;
4786;SDS011;62338;48.832;9.422;2022-08-01T09:18:32;4.05;;;2.40;;
4786;SDS011;62338;48.832;9.422;2022-08-01T09:20:41;4.00;;;2.15;;
4786;SDS011;62338;48.832;9.422;2022-08-01T09:22:44;8.65;;;2.30;;
4786;SDS011;62338;48.832;9.422;2022-08-01T09:27:21;4.97;;;1.90;;
4786;SDS011;62338;48.832;9.422;2022-08-01T09:29:27;5.25;;;2.47;;
4786;SDS011;62338;48.832;9.422;2022-08-01T09:31:41;5.45;;;2.20;;
4786;SDS011;62338;48.832;9.422;2022-08-01T09:33:48;4.75;;;2.50;;
4786;SDS011;62338;48.832;9.422;2022-08-01T09:35:59;4.28;;;2.03;;
4786;SDS011;62338;48.832;9.422;2022-08-01T09:40:15;4.60;;;2.30;;
4786;SDS011;62338;48.832;9.422;2022-08-01T09:42:24;5.13;;;2.40;;
4786;SDS011;62338;48.832;9.422;2022-08-01T09:44:37;6.43;;;2.55;;
4786;SDS011;62338;48.832;9.422;2022-08-01T09:49:05;4.85;;;2.85;;
4786;SDS011;62338;48.832;9.422;2022-08-01T09:51:11;7.30;;;2.40;;
4786;SDS011;62338;48.832;9.422;2022-08-01T09:53:44;5.43;;;2.10;;
4786;SDS011;62338;48.832;9.422;2022-08-01T09:55:53;3.97;;;2.25;;
4786;SDS011;62338;48.832;9.422;2022-08-01T09:57:56;8.18;;;3.40;;
4786;SDS011;62338;48.832;9.422;2022-08-01T10:00:00;5.63;;;2.60;;
4786;SDS011;62338;48.832;9.422;2022-08-01T10:02:03;3.90;;;2.30;;
4786;SDS011;62338;48.832;9.422;2022-08-01T10:04:06;4.50;;;2.83;;
4786;SDS011;62338;48.832;9.422;2022-08-01T10:06:20;5.07;;;3.40;;
4786;SDS011;62338;48.832;9.422;2022-08-01T10:08:25;5.85;;;3.10;;
4786;SDS011;62338;48.832;9.422;2022-08-01T10:10:29;4.63;;;2.88;;
4786;SDS011;62338;48.832;9.422;2022-08-01T10:12:33;4.53;;;2.70;;
4786;SDS011;62338;48.832;9.422;2022-08-01T10:14:37;5.60;;;3.05;;
4786;SDS011;62338;48.832;9.422;2022-08-01T10:16:41;5.10;;;3.05;;
4786;SDS011;62338;48.832;9.422;2022-08-01T10:18:43;4.90;;;3.30;;
4786;SDS011;62338;48.832;9.422;2022-08-01T10:20:47;8.35;;;3.22;;
4786;SDS011;62338;48.832;9.422;2022-08-01T10:22:49;7.07;;;3.53;;
4786;SDS011;62338;48.832;9.422;2022-08-01T10:24:54;4.32;;;3.00;;
4786;SDS011;62338;48.832;9.422;2022-08-01T10:26:59;5.10;;;3.33;;
4786;SDS011;62338;48.832;9.422;2022-08-01T10:29:08;4.75;;;2.88;;
4786;SDS011;62338;48.832;9.422;2022-08-01T10:31:31;7.28;;;3.20;;
4786;SDS011;62338;48.832;9.422;2022-08-01T10:33:34;9.18;;;3.30;;
4786;SDS011;62338;48.832;9.422;2022-08-01T10:35:53;9.98;;;2.88;;
4786;SDS011;62338;48.832;9.422;2022-08-01T10:37:55;5.10;;;3.28;;
4786;SDS011;62338;48.832;9.422;2022-08-01T10:39:59;4.55;;;3.03;;
4786;SDS011;62338;48.832;9.422;2022-08-01T10:42:21;6.03;;;3.13;;
4786;SDS011;62338;48.832;9.422;2022-08-01T10:44:24;5.20;;;3.30;;
4786;SDS011;62338;48.832;9.422;2022-08-01T10:46:27;5.70;;;2.88;;
4786;SDS011;62338;48.832;9.422;2022-08-01T10:48:40;5.13;;;2.92;;
4786;SDS011;62338;48.832;9.422;2022-08-01T10:50:52;5.00;;;2.22;;
4786;SDS011;62338;48.832;9.422;2022-08-01T10:55:24;8.00;;;2.65;;
4786;SDS011;62338;48.832;9.422;2022-08-01T10:57:40;5.20;;;3.00;;
4786;SDS011;62338;48.832;9.422;2022-08-01T10:59:53;4.55;;;2.90;;
4786;SDS011;62338;48.832;9.422;2022-08-01T11:02:02;3.72;;;2.42;;
4786;SDS011;62338;48.832;9.422;2022-08-01T11:06:20;4.72;;;3.33;;
4786;SDS011;62338;48.832;9.422;2022-08-01T11:08:27;4.97;;;2.80;;
4786;SDS011;62338;48.832;9.422;2022-08-01T11:12:46;4.20;;;2.60;;
4786;SDS011;62338;48.832;9.422;2022-08-01T11:22:07;5.38;;;2.45;;
4786;SDS011;62338;48.832;9.422;2022-08-01T11:24:10;5.40;;;2.40;;
4786;SDS011;62338;48.832;9.422;2022-08-01T11:26:14;4.50;;;2.40;;
4786;SDS011;62338;48.832;9.422;2022-08-01T11:28:18;10.13;;;2.92;;
4786;SDS011;62338;48.832;9.422;2022-08-01T11:30:33;4.75;;;3.97;;
4786;SDS011;62338;48.832;9.422;2022-08-01T11:35:12;4.32;;;2.55;;
4786;SDS011;62338;48.832;9.422;2022-08-01T11:37:23;4.60;;;2.85;;
4786;SDS011;62338;48.832;9.422;2022-08-01T11:39:31;4.10;;;2.38;;
4786;SDS011;62338;48.832;9.422;2022-08-01T11:41:39;5.60;;;2.80;;
4786;SDS011;62338;48.832;9.422;2022-08-01T11:43:58;4.50;;;2.80;;
4786;SDS011;62338;48.832;9.422;2022-08-01T11:46:12;9.00;;;2.50;;
4786;SDS011;62338;48.832;9.422;2022-08-01T11:48:20;4.55;;;2.42;;
4786;SDS011;62338;48.832;9.422;2022-08-01T11:50:31;4.78;;;2.47;;
4786;SDS011;62338;48.832;9.422;2022-08-01T11:52:34;4.18;;;2.80;;
4786;SDS011;62338;48.832;9.422;2022-08-01T11:54:38;8.85;;;2.30;;
4786;SDS011;62338;48.832;9.422;2022-08-01T11:56:42;5.05;;;2.30;;
4786;SDS011;62338;48.832;9.422;2022-08-01T11:58:48;8.48;;;2.30;;
4786;SDS011;62338;48.832;9.422;2022-08-01T12:00:55;4.82;;;2.45;;
4786;SDS011;62338;48.832;9.422;2022-08-01T12:02:59;3.50;;;2.42;;
4786;SDS011;62338;48.832;9.422;2022-08-01T12:07:12;4.32;;;2.10;;
4786;SDS011;62338;48.832;9.422;2022-08-01T12:09:19;4.78;;;2.42;;
4786;SDS011;62338;48.832;9.422;2022-08-01T12:11:22;3.78;;;2.10;;
4786;SDS011;62338;48.832;9.422;2022-08-01T12:13:39;5.82;;;2.20;;
4786;SDS011;62338;48.832;9.422;2022-08-01T12:15:42;7.57;;;2.20;;
4786;SDS011;62338;48.832;9.422;2022-08-01T12:17:49;4.53;;;2.20;;
4786;SDS011;62338;48.832;9.422;2022-08-01T12:19:58;4.55;;;2.55;;
4786;SDS011;62338;48.832;9.422;2022-08-01T12:22:04;4.32;;;2.30;;
4786;SDS011;62338;48.832;9.422;2022-08-01T12:24:10;3.28;;;2.08;;
4786;SDS011;62338;48.832;9.422;2022-08-01T12:26:11;5.13;;;2.80;;
4786;SDS011;62338;48.832;9.422;2022-08-01T12:28:38;4.38;;;2.30;;
4786;SDS011;62338;48.832;9.422;2022-08-01T12:30:41;4.28;;;2.50;;
4786;SDS011;62338;48.832;9.422;2022-08-01T12:32:46;3.22;;;1.90;;
4786;SDS011;62338;48.832;9.422;2022-08-01T12:34:49;3.42;;;2.20;;
4786;SDS011;62338;48.832;9.422;2022-08-01T12:36:51;4.45;;;2.10;;
4786;SDS011;62338;48.832;9.422;2022-08-01T12:38:53;4.95;;;2.30;;
4786;SDS011;62338;48.832;9.422;2022-08-01T12:40:55;4.72;;;2.08;;
4786;SDS011;62338;48.832;9.422;2022-08-01T12:42:58;4.70;;;2.05;;
4786;SDS011;62338;48.832;9.422;2022-08-01T12:45:01;3.45;;;2.15;;
4786;SDS011;62338;48.832;9.422;2022-08-01T12:47:03;4.82;;;2.17;;
4786;SDS011;62338;48.832;9.422;2022-08-01T12:49:08;4.85;;;2.28;;
4786;SDS011;62338;48.832;9.422;2022-08-01T12:51:11;4.50;;;1.77;;
4786;SDS011;62338;48.832;9.422;2022-08-01T12:53:13;3.13;;;2.00;;
4786;SDS011;62338;48.832;9.422;2022-08-01T12:55:22;3.55;;;2.05;;
4786;SDS011;62338;48.832;9.422;2022-08-01T12:57:36;3.33;;;2.22;;
4786;SDS011;62338;48.832;9.422;2022-08-01T12:59:39;5.43;;;2.08;;
4786;SDS011;62338;48.832;9.422;2022-08-01T13:01:41;3.80;;;2.17;;
4786;SDS011;62338;48.832;9.422;2022-08-01T13:03:56;3.65;;;2.10;;
4786;SDS011;62338;48.832;9.422;2022-08-01T13:06:00;3.40;;;1.95;;
4786;SDS011;62338;48.832;9.422;2022-08-01T13:08:14;3.22;;;2.13;;
4786;SDS011;62338;48.832;9.422;2022-08-01T13:10:26;3.58;;;2.00;;
4786;SDS011;62338;48.832;9.422;2022-08-01T13:12:30;5.15;;;2.90;;
4786;SDS011;62338;48.832;9.422;2022-08-01T13:14:32;3.80;;;2.17;;
4786;SDS011;62338;48.832;9.422;2022-08-01T13:16:44;3.42;;;2.47;;
4786;SDS011;62338;48.832;9.422;2022-08-01T13:18:57;3.83;;;2.50;;
4786;SDS011;62338;48.832;9.422;2022-08-01T13:21:18;3.47;;;2.17;;
4786;SDS011;62338;48.832;9.422;2022-08-01T13:23:21;2.90;;;1.92;;
4786;SDS011;62338;48.832;9.422;2022-08-01T13:25:53;3.05;;;1.77;;
4786;SDS011;62338;48.832;9.422;2022-08-01T13:28:18;3.72;;;2.22;;
4786;SDS011;62338;48.832;9.422;2022-08-01T13:30:22;6.10;;;2.47;;
4786;SDS011;62338;48.832;9.422;2022-08-01T13:32:24;2.60;;;1.70;;
4786;SDS011;62338;48.832;9.422;2022-08-01T13:34:33;5.65;;;2.03;;
4786;SDS011;62338;48.832;9.422;2022-08-01T13:36:36;2.97;;;2.15;;
4786;SDS011;62338;48.832;9.422;2022-08-01T13:38:38;7.30;;;1.95;;
4786;SDS011;62338;48.832;9.422;2022-08-01T13:41:00;3.00;;;2.00;;
4786;SDS011;62338;48.832;9.422;2022-08-01T13:43:01;3.42;;;1.90;;
4786;SDS011;62338;48.832;9.422;2022-08-01T13:45:04;4.68;;;2.17;;
4786;SDS011;62338;48.832;9.422;2022-08-01T13:47:15;4.65;;;2.05;;
4786;SDS011;62338;48.832;9.422;2022-08-01T13:49:17;4.25;;;2.10;;
4786;SDS011;62338;48.832;9.422;2022-08-01T13:51:20;3.40;;;2.03;;
4786;SDS011;62338;48.832;9.422;2022-08-01T13:53:22;4.43;;;2.00;;
4786;SDS011;62338;48.832;9.422;2022-08-01T13:55:24;2.80;;;1.92;;
4786;SDS011;62338;48.832;9.422;2022-08-01T13:57:34;4.45;;;1.90;;
4786;SDS011;62338;48.832;9.422;2022-08-01T13:59:37;3.63;;;2.00;;
4786;SDS011;62338;48.832;9.422;2022-08-01T14:01:39;4.93;;;2.10;;
4786;SDS011;62338;48.832;9.422;2022-08-01T14:03:41;4.55;;;1.85;;
4786;SDS011;62338;48.832;9.422;2022-08-01T14:05:43;4.40;;;1.85;;
4786;SDS011;62338;48.832;9.422;2022-08-01T14:07:45;4.40;;;2.30;;
4786;SDS011;62338;48.832;9.422;2022-08-01T14:09:49;4.22;;;2.20;;
4786;SDS011;62338;48.832;9.422;2022-08-01T14:12:10;4.90;;;2.25;;
4786;SDS011;62338;48.832;9.422;2022-08-01T14:14:12;3.53;;;1.95;;
4786;SDS011;62338;48.832;9.422;2022-08-01T14:16:14;6.47;;;1.88;;
4786;SDS011;62338;48.832;9.422;2022-08-01T14:18:17;3.40;;;2.10;;
4786;SDS011;62338;48.832;9.422;2022-08-01T14:20:19;3.60;;;2.17;;
4786;SDS011;62338;48.832;9.422;2022-08-01T14:22:21;5.95;;;1.95;;
4786;SDS011;62338;48.832;9.422;2022-08-01T14:24:23;7.35;;;2.53;;
4786;SDS011;62338;48.832;9.422;2022-08-01T14:26:27;2.80;;;1.65;;
4786;SDS011;62338;48.832;9.422;2022-08-01T14:28:29;4.03;;;2.15;;
4786;SDS011;62338;48.832;9.422;2022-08-01T14:30:32;5.65;;;2.20;;
4786;SDS011;62338;48.832;9.422;2022-08-01T14:32:34;3.58;;;2.00;;
4786;SDS011;62338;48.832;9.422;2022-08-01T14:34:36;2.95;;;1.67;;
4786;SDS011;62338;48.832;9.422;2022-08-01T14:36:37;3.88;;;1.92;;
4786;SDS011;62338;48.832;9.422;2022-08-01T14:38:43;3.40;;;2.10;;
4786;SDS011;62338;48.832;9.422;2022-08-01T14:40:46;4.15;;;1.92;;
4786;SDS011;62338;48.832;9.422;2022-08-01T14:42:52;4.13;;;2.03;;
4786;SDS011;62338;48.832;9.422;2022-08-01T14:44:54;5.20;;;2.05;;
4786;SDS011;62338;48.832;9.422;2022-08-01T14:46:55;6.00;;;1.90;;
4786;SDS011;62338;48.832;9.422;2022-08-01T14:48:58;4.43;;;1.90;;
4786;SDS011;62338;48.832;9.422;2022-08-01T14:51:00;3.80;;;1.83;;
4786;SDS011;62338;48.832;9.422;2022-08-01T14:53:04;6.18;;;1.75;;
4786;SDS011;62338;48.832;9.422;2022-08-01T14:55:06;3.40;;;1.80;;
4786;SDS011;62338;48.832;9.422;2022-08-01T14:57:09;5.30;;;2.00;;
4786;SDS011;62338;48.832;9.422;2022-08-01T14:59:11;4.38;;;1.98;;
4786;SDS011;62338;48.832;9.422;2022-08-01T15:01:21;6.03;;;2.33;;
4786;SDS011;62338;48.832;9.422;2022-08-01T15:03:23;6.35;;;2.00;;
4786;SDS011;62338;48.832;9.422;2022-08-01T15:05:25;3.45;;;1.88;;
4786;SDS011;62338;48.832;9.422;2022-08-01T15:07:27;4.65;;;2.25;;
4786;SDS011;62338;48.832;9.422;2022-08-01T15:09:29;4.53;;;2.67;;
4786;SDS011;62338;48.832;9.422;2022-08-01T15:11:31;3.15;;;1.88;;
4786;SDS011;62338;48.832;9.422;2022-08-01T15:13:34;4.18;;;2.05;;
4786;SDS011;62338;48.832;9.422;2022-08-01T15:15:42;3.30;;;2.10;;
4786;SDS011;62338;48.832;9.422;2022-08-01T15:17:44;2.65;;;1.60;;
4786;SDS011;62338;48.832;9.422;2022-08-01T15:19:46;5.90;;;1.98;;
4786;SDS011;62338;48.832;9.422;2022-08-01T15:21:50;5.03;;;1.90;;
4786;SDS011;62338;48.832;9.422;2022-08-01T15:23:51;3.50;;;2.33;;
4786;SDS011;62338;48.832;9.422;2022-08-01T15:25:53;3.13;;;1.85;;
4786;SDS011;62338;48.832;9.422;2022-08-01T15:27:55;5.13;;;1.80;;
4786;SDS011;62338;48.832;9.422;2022-08-01T15:29:57;5.28;;;2.22;;
4786;SDS011;62338;48.832;9.422;2022-08-01T15:31:59;4.32;;;1.90;;
4786;SDS011;62338;48.832;9.422;2022-08-01T15:34:01;8.70;;;2.08;;
4786;SDS011;62338;48.832;9.422;2022-08-01T15:36:04;5.28;;;2.05;;
4786;SDS011;62338;48.832;9.422;2022-08-01T15:38:06;5.50;;;2.42;;
4786;SDS011;62338;48.832;9.422;2022-08-01T15:40:08;3.40;;;2.00;;
4786;SDS011;62338;48.832;9.422;2022-08-01T15:42:11;6.10;;;2.15;;
4786;SDS011;62338;48.832;9.422;2022-08-01T15:44:25;4.43;;;2.10;;
4786;SDS011;62338;48.832;9.422;2022-08-01T15:46:27;4.72;;;2.28;;
4786;SDS011;62338;48.832;9.422;2022-08-01T15:48:28;5.13;;;1.92;;
4786;SDS011;62338;48.832;9.422;2022-08-01T15:50:30;8.25;;;3.63;;
4786;SDS011;62338;48.832;9.422;2022-08-01T15:52:32;6.15;;;2.38;;
4786;SDS011;62338;48.832;9.422;2022-08-01T15:54:34;3.88;;;2.00;;
4786;SDS011;62338;48.832;9.422;2022-08-01T15:56:36;3.95;;;2.03;;
4786;SDS011;62338;48.832;9.422;2022-08-01T15:58:39;3.50;;;2.13;;
4786;SDS011;62338;48.832;9.422;2022-08-01T16:00:41;4.70;;;2.85;;
4786;SDS011;62338;48.832;9.422;2022-08-01T16:02:43;7.55;;;3.80;;
4786;SDS011;62338;48.832;9.422;2022-08-01T16:04:45;6.45;;;3.60;;
4786;SDS011;62338;48.832;9.422;2022-08-01T16:06:46;4.72;;;2.08;;
4786;SDS011;62338;48.832;9.422;2022-08-01T16:08:48;4.13;;;1.95;;
4786;SDS011;62338;48.832;9.422;2022-08-01T16:10:50;3.40;;;1.88;;
4786;SDS011;62338;48.832;9.422;2022-08-01T16:12:52;4.32;;;2.30;;
4786;SDS011;62338;48.832;9.422;2022-08-01T16:14:55;3.70;;;1.98;;
4786;SDS011;62338;48.832;9.422;2022-08-01T16:16:57;4.28;;;1.90;;
4786;SDS011;62338;48.832;9.422;2022-08-01T16:18:58;6.60;;;2.10;;
4786;SDS011;62338;48.832;9.422;2022-08-01T16:21:00;5.32;;;1.63;;
4786;SDS011;62338;48.832;9.422;2022-08-01T16:23:02;4.40;;;2.10;;
4786;SDS011;62338;48.832;9.422;2022-08-01T16:25:04;5.13;;;2.53;;
4786;SDS011;62338;48.832;9.422;2022-08-01T16:27:07;4.85;;;2.47;;
4786;SDS011;62338;48.832;9.422;2022-08-01T16:29:09;5.57;;;2.35;;
4786;SDS011;62338;48.832;9.422;2022-08-01T16:31:10;4.78;;;2.60;;
4786;SDS011;62338;48.832;9.422;2022-08-01T16:33:32;4.68;;;2.30;;
4786;SDS011;62338;48.832;9.422;2022-08-01T16:35:55;3.78;;;1.85;;
4786;SDS011;62338;48.832;9.422;2022-08-01T16:37:58;5.95;;;1.75;;
4786;SDS011;62338;48.832;9.422;2022-08-01T16:40:00;9.27;;;2.08;;
4786;SDS011;62338;48.832;9.422;2022-08-01T16:42:02;4.35;;;2.08;;
4786;SDS011;62338;48.832;9.422;2022-08-01T16:44:04;3.97;;;1.85;;
4786;SDS011;62338;48.832;9.422;2022-08-01T16:46:06;3.92;;;1.77;;
4786;SDS011;62338;48.832;9.422;2022-08-01T16:48:11;8.98;;;2.22;;
4786;SDS011;62338;48.832;9.422;2022-08-01T16:50:15;3.90;;;2.00;;
4786;SDS011;62338;48.832;9.422;2022-08-01T16:52:27;3.45;;;1.67;;
4786;SDS011;62338;48.832;9.422;2022-08-01T16:54:29;4.45;;;2.35;;
4786;SDS011;62338;48.832;9.422;2022-08-01T16:56:31;4.07;;;1.58;;
4786;SDS011;62338;48.832;9.422;2022-08-01T16:58:33;3.10;;;1.48;;
4786;SDS011;62338;48.832;9.422;2022-08-01T17:00:35;3.97;;;2.10;;